Time;durP1;ratioP1;P1;durP2;ratioP2;P2;SDS_P1;SDS_P2;PMS_P1;PMS_P2;Temp;Humidity;BMP_temperature;BMP_pressure;BME280_temperature;BME280_humidity;BME280_pressure;Samples;Min_cycle;Max_cycle;Signal;HPM_P1;HPM_P2
2021/09/14 00:00:55;;;;;;;8.15;2.00;;;13.40;99.90;;;;;;5016583;28;20383;-86
2021/09/14 00:03:20;;;;;;;4.60;1.98;;;13.40;99.90;;;;;;5034259;28;20570;-86
2021/09/14 00:05:46;;;;;;;6.70;1.42;;;13.40;99.90;;;;;;5015749;28;20398;-86
2021/09/14 00:08:11;;;;;;;7.20;1.63;;;13.30;99.90;;;;;;5034152;28;20051;-85
2021/09/14 00:10:37;;;;;;;10.48;2.15;;;13.20;99.90;;;;;;5034088;28;20025;-86
2021/09/14 00:13:02;;;;;;;12.27;1.92;;;13.30;99.90;;;;;;5016293;28;20547;-86
2021/09/14 00:15:28;;;;;;;8.65;1.95;;;13.30;99.90;;;;;;5015776;28;20502;-86
2021/09/14 00:17:54;;;;;;;13.20;1.83;;;13.30;99.90;;;;;;5033794;28;20032;-85
2021/09/14 00:20:19;;;;;;;10.23;2.10;;;13.40;99.90;;;;;;5033807;28;20038;-87
2021/09/14 00:22:45;;;;;;;6.95;2.03;;;13.40;99.90;;;;;;5033868;28;20041;-86
2021/09/14 00:25:11;;;;;;;1.92;1.00;;;13.50;99.90;;;;;;5033181;28;20033;-85
2021/09/14 00:27:37;;;;;;;5.68;2.08;;;13.50;99.90;;;;;;5033734;28;20026;-86
2021/09/14 00:30:03;;;;;;;4.15;1.80;;;13.60;99.90;;;;;;5033809;28;20436;-86
2021/09/14 00:32:28;;;;;;;8.63;1.88;;;13.50;99.90;;;;;;5032388;28;20017;-86
2021/09/14 00:34:54;;;;;;;6.80;1.60;;;13.50;99.90;;;;;;5032315;28;20136;-87
2021/09/14 00:37:19;;;;;;;9.18;2.15;;;13.40;99.90;;;;;;5031439;28;20025;-86
2021/09/14 00:39:45;;;;;;;7.47;1.90;;;13.30;99.90;;;;;;5015536;28;20541;-87
2021/09/14 00:42:11;;;;;;;7.50;2.08;;;13.20;99.90;;;;;;5032754;28;20567;-86
2021/09/14 00:44:36;;;;;;;13.55;2.63;;;13.10;99.90;;;;;;5033278;28;20025;-87
2021/09/14 00:47:02;;;;;;;4.43;1.50;;;13.20;99.90;;;;;;5033005;28;20108;-87
2021/09/14 00:49:28;;;;;;;5.90;1.20;;;13.10;99.90;;;;;;5032482;28;20136;-86
2021/09/14 00:51:53;;;;;;;9.02;2.47;;;13.00;99.90;;;;;;5032159;28;20044;-87
2021/09/14 00:54:19;;;;;;;3.97;1.80;;;12.90;99.90;;;;;;5033114;28;20071;-87
2021/09/14 00:56:45;;;;;;;5.53;1.52;;;12.80;99.90;;;;;;5032970;28;20036;-87
2021/09/14 00:59:10;;;;;;;4.97;1.83;;;12.90;99.90;;;;;;5033079;28;20029;-87
2021/09/14 01:01:36;;;;;;;9.13;2.38;;;12.90;99.90;;;;;;5033108;28;20604;-86
2021/09/14 01:04:03;;;;;;;6.35;1.95;;;12.90;99.90;;;;;;5033035;28;20030;-86
2021/09/14 01:06:28;;;;;;;5.38;1.77;;;12.90;99.90;;;;;;5032698;28;20029;-86
2021/09/14 01:08:55;;;;;;;12.90;1.58;;;12.90;99.90;;;;;;5033065;28;20025;-87
2021/09/14 01:11:21;;;;;;;4.68;1.50;;;13.00;99.90;;;;;;5033094;28;20034;-86
2021/09/14 01:13:46;;;;;;;6.63;1.42;;;13.00;99.90;;;;;;5032343;28;20525;-87
2021/09/14 01:16:12;;;;;;;8.90;1.90;;;13.10;99.90;;;;;;5015226;28;20058;-87
2021/09/14 01:18:38;;;;;;;5.18;1.55;;;13.20;99.90;;;;;;5032657;28;20125;-86
2021/09/14 01:21:04;;;;;;;8.27;1.20;;;13.20;99.90;;;;;;5031988;28;20052;-87
2021/09/14 01:23:30;;;;;;;9.05;1.60;;;13.30;99.90;;;;;;5032813;28;20026;-87
2021/09/14 01:25:55;;;;;;;9.18;1.48;;;13.30;99.90;;;;;;5032523;28;20025;-87
2021/09/14 01:28:21;;;;;;;4.82;1.77;;;13.50;99.90;;;;;;5031404;28;20029;-87
2021/09/14 01:30:47;;;;;;;4.97;1.58;;;13.60;99.90;;;;;;5031420;28;20398;-87
2021/09/14 01:33:15;;;;;;;4.22;1.35;;;13.60;99.90;;;;;;5031114;28;20076;-87
2021/09/14 01:35:41;;;;;;;14.40;2.25;;;13.50;99.90;;;;;;5032546;28;20032;-87
2021/09/14 01:38:06;;;;;;;15.48;1.88;;;13.60;99.90;;;;;;5032289;28;20041;-87
2021/09/14 01:40:32;;;;;;;7.10;1.85;;;13.70;99.90;;;;;;5032584;28;20032;-87
2021/09/14 01:42:57;;;;;;;20.30;2.85;;;13.70;99.90;;;;;;5032651;28;20060;-87
2021/09/14 01:45:23;;;;;;;5.95;1.70;;;13.70;99.90;;;;;;5014322;28;20025;-87
2021/09/14 01:47:48;;;;;;;8.57;1.60;;;13.70;99.90;;;;;;5032106;28;20455;-86
2021/09/14 01:50:16;;;;;;;8.93;1.75;;;13.70;99.90;;;;;;5032246;28;20512;-87
2021/09/14 01:52:42;;;;;;;6.95;1.67;;;13.80;99.90;;;;;;5014694;28;20080;-87
2021/09/14 01:55:11;;;;;;;5.10;1.80;;;13.90;99.90;;;;;;5014541;28;20413;-87
2021/09/14 01:57:39;;;;;;;7.35;2.15;;;13.90;99.90;;;;;;5032391;28;20025;-87
2021/09/14 02:00:09;;;;;;;6.13;1.50;;;13.80;99.90;;;;;;5030926;28;20616;-87
2021/09/14 02:08:21;;;;;;;5.07;1.63;;;13.80;99.90;;;;;;5032346;28;19912;-86
2021/09/14 02:43:42;;;;;;;10.88;2.17;;;13.70;99.90;;;;;;5031604;28;20121;-86
2021/09/14 03:00:10;;;;;;;6.43;1.65;;;13.80;99.90;;;;;;5012356;28;20037;-87
2021/09/14 03:02:35;;;;;;;8.32;1.70;;;13.70;99.90;;;;;;5014990;28;20507;-87
2021/09/14 03:05:03;;;;;;;6.65;1.48;;;13.70;99.90;;;;;;5014741;28;20037;-87
2021/09/14 03:07:29;;;;;;;4.78;1.50;;;13.70;99.90;;;;;;5034941;28;20022;-87
2021/09/14 03:09:54;;;;;;;4.85;1.25;;;13.70;99.90;;;;;;5034124;28;20029;-86
2021/09/14 03:12:20;;;;;;;5.40;1.73;;;13.70;99.90;;;;;;5035337;28;20040;-87
2021/09/14 03:14:47;;;;;;;4.20;1.63;;;13.70;99.90;;;;;;5034865;28;20656;-87
2021/09/14 03:17:12;;;;;;;3.60;1.73;;;13.70;99.90;;;;;;5033926;28;20049;-86
2021/09/14 03:19:38;;;;;;;7.45;1.55;;;13.80;99.90;;;;;;5017527;28;20389;-87
2021/09/14 03:22:03;;;;;;;7.00;1.60;;;13.80;99.90;;;;;;5035104;28;20109;-86
2021/09/14 03:24:29;;;;;;;5.90;1.60;;;13.80;99.90;;;;;;5033120;28;20030;-87
2021/09/14 03:26:57;;;;;;;10.95;2.80;;;13.70;99.90;;;;;;5035268;28;20041;-86
2021/09/14 03:29:23;;;;;;;7.55;2.10;;;13.80;99.90;;;;;;5017423;28;20075;-88
2021/09/14 03:31:48;;;;;;;6.25;1.50;;;13.70;99.90;;;;;;5034054;28;20041;-87
2021/09/14 03:34:14;;;;;;;5.63;2.20;;;13.70;99.90;;;;;;5033078;28;20132;-87
2021/09/14 03:36:40;;;;;;;8.57;2.40;;;13.80;99.90;;;;;;5033678;28;20121;-87
2021/09/14 03:39:05;;;;;;;5.43;1.73;;;13.70;99.90;;;;;;5034649;28;20029;-87
2021/09/14 03:41:31;;;;;;;4.40;1.65;;;13.80;99.90;;;;;;5033718;28;20038;-87
2021/09/14 03:43:56;;;;;;;5.50;1.85;;;13.70;99.90;;;;;;5033462;28;20053;-87
2021/09/14 03:46:22;;;;;;;8.13;2.60;;;13.70;99.90;;;;;;5016477;28;20029;-87
2021/09/14 03:48:47;;;;;;;5.80;1.80;;;13.60;99.90;;;;;;5034691;28;20494;-87
2021/09/14 03:51:13;;;;;;;7.28;1.58;;;13.70;99.90;;;;;;5034505;28;20028;-87
2021/09/14 03:53:38;;;;;;;5.75;1.60;;;13.70;99.90;;;;;;5033565;28;20029;-87
2021/09/14 03:56:04;;;;;;;4.90;1.75;;;13.70;99.90;;;;;;5034256;28;20033;-87
2021/09/14 03:58:30;;;;;;;5.90;1.77;;;13.80;99.90;;;;;;5034476;28;20025;-87
2021/09/14 04:00:55;;;;;;;8.45;2.47;;;13.80;99.90;;;;;;5034463;28;20057;-87
2021/09/14 04:03:27;;;;;;;4.63;2.17;;;13.80;99.90;;;;;;5034575;28;20030;-87
2021/09/14 04:06:09;;;;;;;4.13;1.70;;;13.80;99.90;;;;;;5033594;28;20108;-87
2021/09/14 04:11:15;;;;;;;8.00;2.58;;;13.90;99.90;;;;;;5034385;28;20156;-87
2021/09/14 04:13:41;;;;;;;7.90;2.25;;;13.80;99.90;;;;;;5034128;28;20505;-87
2021/09/14 04:16:06;;;;;;;1.95;1.40;;;13.80;99.90;;;;;;5033797;28;20443;-88
2021/09/14 04:18:32;;;;;;;7.65;2.60;;;13.90;99.90;;;;;;5034062;28;20026;-87
2021/09/14 04:20:58;;;;;;;11.52;2.55;;;13.80;99.90;;;;;;5034347;28;20063;-86
2021/09/14 04:23:23;;;;;;;16.80;2.88;;;13.80;99.90;;;;;;5034205;28;20036;-87
2021/09/14 04:25:49;;;;;;;11.57;2.20;;;13.70;99.90;;;;;;5033663;28;20088;-87
2021/09/14 04:28:14;;;;;;;8.50;2.22;;;13.70;99.90;;;;;;5034123;28;20021;-87
2021/09/14 04:30:40;;;;;;;6.70;2.58;;;13.70;99.90;;;;;;5016328;28;20113;-87
2021/09/14 04:33:06;;;;;;;13.60;2.17;;;13.70;99.90;;;;;;5032790;28;20556;-87
2021/09/14 04:35:31;;;;;;;9.98;2.03;;;13.70;99.90;;;;;;5033597;28;20026;-87
2021/09/14 04:37:57;;;;;;;9.48;2.17;;;13.70;99.90;;;;;;5033446;28;20029;-87
2021/09/14 04:40:23;;;;;;;5.38;1.98;;;13.60;99.90;;;;;;5033830;28;20079;-87
2021/09/14 04:42:49;;;;;;;7.90;2.40;;;13.70;99.90;;;;;;5033694;28;20062;-87
2021/09/14 04:45:14;;;;;;;6.15;1.70;;;13.80;99.90;;;;;;5015678;28;20021;-86
2021/09/14 04:47:40;;;;;;;9.93;2.28;;;13.70;99.90;;;;;;5033024;28;20025;-86
2021/09/14 04:50:06;;;;;;;6.72;2.00;;;13.70;99.90;;;;;;5016035;28;20022;-87
2021/09/14 04:52:32;;;;;;;5.70;1.80;;;13.70;99.90;;;;;;5032409;28;20116;-87
2021/09/14 04:54:57;;;;;;;4.95;2.10;;;13.70;99.90;;;;;;5033414;28;20100;-86
2021/09/14 04:57:23;;;;;;;6.05;1.92;;;13.70;99.90;;;;;;5033145;28;20030;-88
2021/09/14 04:59:48;;;;;;;7.60;2.60;;;13.70;99.90;;;;;;5032219;28;20018;-87
2021/09/14 05:02:14;;;;;;;5.50;1.90;;;13.70;99.90;;;;;;5031965;28;20033;-87
2021/09/14 05:04:39;;;;;;;7.40;2.60;;;13.70;99.90;;;;;;5033040;28;20100;-86
2021/09/14 05:07:05;;;;;;;12.07;1.92;;;13.70;99.90;;;;;;5031681;28;20064;-87
2021/09/14 05:09:31;;;;;;;9.00;2.03;;;13.70;99.90;;;;;;5033312;28;20064;-87
2021/09/14 05:11:56;;;;;;;7.45;2.58;;;13.70;99.90;;;;;;5033225;28;20017;-87
2021/09/14 05:14:22;;;;;;;4.50;1.83;;;13.70;99.90;;;;;;5032847;28;20026;-86
2021/09/14 05:16:48;;;;;;;5.18;2.10;;;13.80;99.90;;;;;;5032796;28;20026;-87
2021/09/14 05:19:16;;;;;;;9.43;2.28;;;13.70;99.90;;;;;;5032708;28;20437;-87
2021/09/14 05:21:46;;;;;;;5.28;1.85;;;13.80;99.90;;;;;;5031389;28;20068;-87
2021/09/14 05:24:12;;;;;;;8.05;1.92;;;13.80;99.90;;;;;;5014817;28;20486;-87
2021/09/14 05:26:39;;;;;;;5.82;1.70;;;13.80;99.90;;;;;;5032782;28;20499;-88
2021/09/14 05:29:05;;;;;;;10.05;2.38;;;13.80;99.90;;;;;;5032711;28;20542;-87
2021/09/14 05:31:30;;;;;;;9.68;2.33;;;13.80;99.90;;;;;;5031636;28;20028;-86
2021/09/14 05:33:56;;;;;;;4.13;1.88;;;13.80;99.90;;;;;;5032320;28;20014;-87
2021/09/14 05:36:22;;;;;;;2.42;1.77;;;13.90;99.90;;;;;;5032553;28;20025;-86
2021/09/14 05:38:47;;;;;;;10.55;2.47;;;13.80;99.90;;;;;;5032336;28;20021;-87
2021/09/14 05:41:13;;;;;;;4.80;2.67;;;13.90;99.90;;;;;;5032533;28;20057;-86
2021/09/14 05:43:38;;;;;;;7.55;1.80;;;14.00;99.90;;;;;;5032429;28;20025;-87
2021/09/14 05:46:04;;;;;;;5.53;2.10;;;14.00;99.90;;;;;;5032235;28;20030;-87
2021/09/14 05:48:30;;;;;;;3.78;1.77;;;14.10;99.90;;;;;;5014328;28;20477;-86
2021/09/14 05:50:55;;;;;;;9.35;1.85;;;14.20;99.90;;;;;;5014796;28;20017;-86
2021/09/14 05:53:21;;;;;;;6.43;2.08;;;14.20;99.90;;;;;;5032141;28;20037;-87
2021/09/14 05:55:47;;;;;;;5.22;1.52;;;14.20;99.90;;;;;;5032178;28;20025;-87
2021/09/14 05:58:12;;;;;;;9.75;2.20;;;14.30;99.90;;;;;;5032321;28;20021;-87
2021/09/14 06:00:38;;;;;;;4.85;1.60;;;14.40;99.90;;;;;;5031077;28;20029;-87
2021/09/14 06:03:04;;;;;;;5.53;2.92;;;14.40;99.90;;;;;;5031455;28;20034;-87
2021/09/14 06:05:29;;;;;;;5.60;1.77;;;14.40;99.90;;;;;;5031470;28;20048;-87
2021/09/14 06:07:55;;;;;;;5.78;1.67;;;14.40;99.90;;;;;;5032236;28;20124;-87
2021/09/14 06:10:20;;;;;;;7.93;1.48;;;14.50;99.90;;;;;;5031828;28;20025;-88
2021/09/14 06:12:46;;;;;;;7.10;1.73;;;14.50;99.90;;;;;;5031065;28;20025;-88
2021/09/14 06:15:12;;;;;;;6.65;2.13;;;14.50;99.90;;;;;;5014511;28;20109;-88
2021/09/14 06:17:39;;;;;;;5.93;2.25;;;14.60;99.90;;;;;;5032296;28;20083;-86
2021/09/14 06:20:05;;;;;;;5.90;1.63;;;14.60;99.90;;;;;;5030375;28;20025;-85
2021/09/14 06:22:31;;;;;;;8.15;2.17;;;14.60;99.90;;;;;;5031624;28;20398;-84
2021/09/14 06:24:56;;;;;;;10.82;2.22;;;14.80;99.90;;;;;;5013383;28;20034;-85
2021/09/14 06:27:22;;;;;;;7.75;2.10;;;15.00;99.90;;;;;;5013845;28;20029;-84
2021/09/14 06:29:48;;;;;;;7.53;2.30;;;15.00;99.90;;;;;;5030371;28;20061;-86
2021/09/14 06:32:13;;;;;;;11.13;2.15;;;15.10;99.90;;;;;;5014039;28;20041;-86
2021/09/14 06:34:39;;;;;;;4.13;1.38;;;15.10;99.90;;;;;;5029621;28;20079;-84
2021/09/14 06:37:07;;;;;;;12.95;2.20;;;15.30;99.90;;;;;;5033785;28;20108;-85
2021/09/14 06:39:34;;;;;;;10.55;1.85;;;15.40;99.90;;;;;;5034325;28;20030;-84
2021/09/14 06:41:59;;;;;;;6.55;1.60;;;15.50;99.90;;;;;;5034652;28;20032;-86
2021/09/14 06:44:25;;;;;;;10.95;2.00;;;15.50;99.90;;;;;;5033671;28;20393;-85
2021/09/14 06:46:51;;;;;;;5.55;1.45;;;15.80;99.90;;;;;;5017852;28;20099;-85
2021/09/14 06:49:17;;;;;;;6.82;2.28;;;15.80;99.90;;;;;;5035865;28;20033;-86
2021/09/14 06:51:43;;;;;;;10.52;2.15;;;15.90;99.90;;;;;;5034615;28;20018;-86
2021/09/14 06:54:08;;;;;;;9.82;2.63;;;15.80;99.90;;;;;;5033931;28;20021;-86
2021/09/14 06:56:34;;;;;;;7.40;2.03;;;15.90;99.90;;;;;;5035253;28;20108;-86
2021/09/14 06:59:00;;;;;;;6.93;1.60;;;16.10;99.90;;;;;;5034289;28;20034;-85
2021/09/14 07:01:26;;;;;;;4.55;1.50;;;16.30;99.90;;;;;;5035451;28;20032;-86
2021/09/14 07:03:53;;;;;;;15.35;3.10;;;16.20;99.90;;;;;;5034052;28;20030;-86
2021/09/14 07:06:18;;;;;;;10.55;2.15;;;16.30;99.90;;;;;;5033684;28;20029;-86
2021/09/14 07:08:44;;;;;;;5.95;1.85;;;16.30;99.90;;;;;;5033834;28;20438;-86
2021/09/14 07:11:10;;;;;;;5.55;2.85;;;16.30;99.90;;;;;;5017304;28;20028;-85
2021/09/14 07:13:36;;;;;;;4.90;1.50;;;16.40;99.90;;;;;;5033667;28;20087;-84
2021/09/14 07:16:02;;;;;;;5.68;1.80;;;16.60;99.90;;;;;;5025996;28;20122;-82
2021/09/14 07:18:27;;;;;;;9.05;1.77;;;16.70;99.90;;;;;;5014307;28;20053;-81
2021/09/14 07:20:53;;;;;;;7.07;2.25;;;16.80;99.90;;;;;;5029739;28;20044;-81
2021/09/14 07:23:20;;;;;;;12.80;2.05;;;16.80;99.90;;;;;;5030522;28;20108;-80
2021/09/14 07:25:46;;;;;;;10.30;1.85;;;16.90;99.90;;;;;;5027992;28;20040;-82
2021/09/14 07:28:12;;;;;;;5.45;1.88;;;16.90;99.90;;;;;;5029988;28;20414;-83
2021/09/14 07:30:38;;;;;;;8.75;2.15;;;16.90;99.90;;;;;;5044331;28;20037;-82
2021/09/14 07:33:04;;;;;;;8.02;1.85;;;16.90;99.90;;;;;;5054488;28;20029;-86
2021/09/14 07:35:31;;;;;;;6.63;1.55;;;17.10;99.90;;;;;;5053500;28;20029;-89
2021/09/14 07:37:57;;;;;;;7.72;1.63;;;17.20;99.90;;;;;;5033428;28;20025;-82
2021/09/14 07:40:23;;;;;;;6.25;1.38;;;17.40;99.90;;;;;;5033164;28;20053;-83
2021/09/14 07:42:49;;;;;;;9.38;1.70;;;17.60;99.90;;;;;;5034415;28;20025;-84
2021/09/14 07:45:14;;;;;;;13.18;2.25;;;17.60;99.90;;;;;;5034264;28;20040;-85
2021/09/14 07:47:40;;;;;;;3.97;1.15;;;17.70;99.90;;;;;;5032540;28;20113;-85
2021/09/14 07:50:06;;;;;;;10.68;1.90;;;17.70;99.90;;;;;;5033538;28;20391;-85
2021/09/14 07:52:32;;;;;;;4.88;1.00;;;17.50;99.90;;;;;;5034583;28;20498;-86
2021/09/14 07:54:57;;;;;;;8.05;1.63;;;17.60;99.90;;;;;;5016951;28;20080;-86
2021/09/14 07:57:23;;;;;;;6.47;1.20;;;17.70;99.90;;;;;;5033012;28;20025;-87
2021/09/14 07:59:49;;;;;;;5.43;1.80;;;17.70;99.90;;;;;;5033324;28;20026;-87
2021/09/14 08:02:14;;;;;;;6.40;2.03;;;18.00;99.90;;;;;;5033110;28;20030;-85
2021/09/14 08:04:40;;;;;;;6.72;1.30;;;18.20;99.90;;;;;;5033917;28;20026;-86
2021/09/14 08:07:05;;;;;;;3.75;1.40;;;18.10;99.90;;;;;;5015809;28;20030;-85
2021/09/14 08:09:31;;;;;;;5.72;1.35;;;18.30;99.90;;;;;;5034024;28;20113;-86
2021/09/14 08:12:00;;;;;;;4.05;1.25;;;18.10;99.90;;;;;;5033224;28;20036;-86
2021/09/14 08:14:26;;;;;;;3.53;0.98;;;18.10;99.90;;;;;;5033694;28;20021;-85
2021/09/14 08:16:52;;;;;;;6.78;1.02;;;18.40;99.90;;;;;;5032499;28;20034;-86
2021/09/14 08:19:18;;;;;;;8.63;1.58;;;18.40;99.90;;;;;;5014246;28;20022;-90
2021/09/14 08:21:44;;;;;;;7.35;1.20;;;18.70;99.90;;;;;;5014852;28;20061;-88
2021/09/14 08:24:11;;;;;;;4.70;1.08;;;18.70;99.90;;;;;;4996419;28;20033;-88
2021/09/14 08:26:37;;;;;;;5.18;1.30;;;19.00;99.90;;;;;;5013978;28;20037;-87
2021/09/14 08:29:03;;;;;;;5.95;1.15;;;18.90;99.90;;;;;;5010678;28;20036;-88
2021/09/14 08:31:30;;;;;;;4.90;1.45;;;19.10;99.90;;;;;;5033000;28;20551;-90
2021/09/14 08:33:56;;;;;;;5.90;1.20;;;18.80;99.90;;;;;;5034209;28;20053;-88
2021/09/14 08:36:22;;;;;;;3.53;1.27;;;18.60;99.90;;;;;;5033782;28;20076;-87
2021/09/14 08:38:48;;;;;;;5.00;1.30;;;19.00;99.90;;;;;;5033302;28;20038;-87
2021/09/14 08:41:15;;;;;;;8.00;1.90;;;19.00;99.90;;;;;;5032342;28;20484;-87
2021/09/14 08:43:43;;;;;;;5.32;1.70;;;19.00;99.90;;;;;;5033553;28;20036;-87
2021/09/14 08:46:10;;;;;;;7.40;1.45;;;19.30;99.90;;;;;;5033555;28;20159;-87
2021/09/14 08:48:36;;;;;;;6.80;1.60;;;19.40;99.90;;;;;;5033059;28;20013;-85
2021/09/14 08:51:03;;;;;;;4.45;1.08;;;19.60;99.90;;;;;;5033310;28;20048;-85
2021/09/14 08:53:31;;;;;;;4.57;1.45;;;19.60;99.90;;;;;;5032990;28;20033;-85
2021/09/14 08:55:57;;;;;;;5.57;1.30;;;19.70;99.90;;;;;;5031579;28;20029;-86
2021/09/14 08:58:23;;;;;;;4.82;1.50;;;19.70;99.90;;;;;;5032354;28;20029;-86
2021/09/14 09:00:51;;;;;;;7.03;1.75;;;19.80;99.90;;;;;;5031603;28;20028;-85
2021/09/14 09:03:28;;;;;;;5.57;1.33;;;20.00;99.90;;;;;;5015060;28;20033;-86
2021/09/14 09:05:58;;;;;;;4.40;1.20;;;19.80;99.90;;;;;;5031216;28;20055;-85
2021/09/14 09:08:26;;;;;;;3.78;1.17;;;20.20;99.90;;;;;;5031882;28;20021;-87
2021/09/14 09:11:05;;;;;;;5.40;1.73;;;20.70;99.90;;;;;;5032523;28;20037;-83
2021/09/14 09:13:43;;;;;;;8.15;1.52;;;20.80;99.90;;;;;;5032735;28;20454;-82
2021/09/14 09:16:20;;;;;;;5.20;1.48;;;20.90;99.90;;;;;;5032586;28;20079;-82
2021/09/14 09:18:59;;;;;;;6.25;1.63;;;20.80;99.90;;;;;;5032970;28;20030;-85
2021/09/14 09:21:29;;;;;;;6.20;1.50;;;20.90;99.90;;;;;;5014920;28;20025;-86
2021/09/14 09:23:58;;;;;;;4.07;1.77;;;21.10;99.90;;;;;;5020987;28;20561;-86
2021/09/14 09:26:38;;;;;;;4.43;1.00;;;21.20;99.90;;;;;;5012570;28;20513;-87
2021/09/14 09:29:06;;;;;;;5.88;1.42;;;21.30;99.90;;;;;;5012535;28;20029;-84
2021/09/14 09:31:34;;;;;;;4.65;1.70;;;21.20;99.90;;;;;;5029500;28;20036;-85
2021/09/14 09:34:09;;;;;;;3.25;1.30;;;21.60;99.90;;;;;;5032197;28;20033;-84
2021/09/14 09:36:40;;;;;;;5.03;1.67;;;21.80;99.90;;;;;;5032198;28;20124;-86
2021/09/14 09:39:08;;;;;;;4.40;1.25;;;21.70;99.90;;;;;;5030998;28;20029;-84
2021/09/14 09:41:38;;;;;;;7.15;1.00;;;21.80;99.90;;;;;;5032040;28;20108;-86
2021/09/14 09:44:16;;;;;;;6.47;1.73;;;21.50;99.90;;;;;;5032191;28;20029;-83
2021/09/14 09:46:42;;;;;;;4.43;1.35;;;21.30;99.90;;;;;;5032054;28;20397;-83
2021/09/14 09:49:09;;;;;;;5.20;1.48;;;21.60;99.90;;;;;;5032165;28;20097;-83
2021/09/14 09:51:36;;;;;;;4.25;1.20;;;21.40;99.90;;;;;;5030330;28;20489;-85
2021/09/14 09:54:03;;;;;;;6.47;1.85;;;21.80;99.90;;;;;;5014212;28;20187;-87
2021/09/14 09:56:30;;;;;;;10.52;1.42;;;22.10;99.90;;;;;;5014025;28;20045;-87
2021/09/14 09:58:56;;;;;;;9.15;1.75;;;22.40;99.90;;;;;;5032091;28;20038;-84
2021/09/14 10:01:25;;;;;;;2.28;0.90;;;22.60;99.90;;;;;;5031507;28;20474;-85
2021/09/14 10:04:09;;;;;;;5.72;1.50;;;22.80;99.90;;;;;;5031746;28;20393;-84
2021/09/14 10:06:46;;;;;;;4.97;1.02;;;22.70;99.90;;;;;;5031743;28;20486;-84
2021/09/14 10:09:12;;;;;;;9.00;1.58;;;22.80;99.90;;;;;;5030706;28;20039;-86
2021/09/14 10:11:38;;;;;;;4.63;1.30;;;22.80;99.90;;;;;;5030289;28;20153;-85
2021/09/14 10:14:12;;;;;;;7.40;1.75;;;22.80;99.90;;;;;;5031652;28;20560;-85
2021/09/14 10:16:49;;;;;;;6.93;1.92;;;22.90;99.90;;;;;;5030415;28;20029;-87
2021/09/14 10:19:26;;;;;;;8.85;1.52;;;22.60;99.90;;;;;;5031701;28;20504;-84
2021/09/14 10:22:02;;;;;;;7.28;1.90;;;22.50;99.90;;;;;;5030239;28;20034;-84
2021/09/14 10:24:29;;;;;;;6.32;1.55;;;22.50;99.90;;;;;;5030221;28;20040;-88
2021/09/14 10:27:04;;;;;;;4.32;1.30;;;22.50;99.90;;;;;;5031596;28;20025;-86
2021/09/14 10:29:29;;;;;;;5.70;1.63;;;22.60;99.90;;;;;;5031621;28;20033;-86
2021/09/14 10:32:09;;;;;;;5.38;1.33;;;22.60;99.90;;;;;;5031679;28;20021;-85
2021/09/14 10:34:42;;;;;;;4.82;1.52;;;23.00;99.90;;;;;;5031187;28;20485;-85
2021/09/14 10:37:09;;;;;;;9.35;1.70;;;23.10;99.90;;;;;;5030360;28;20029;-85
2021/09/14 10:39:40;;;;;;;7.60;2.00;;;22.70;99.90;;;;;;5030175;28;20030;-86
2021/09/14 10:42:19;;;;;;;4.65;1.30;;;22.30;99.90;;;;;;5030160;28;20026;-86
2021/09/14 10:44:47;;;;;;;3.22;1.33;;;22.00;99.90;;;;;;5031114;28;20036;-85
2021/09/14 10:47:15;;;;;;;9.50;2.05;;;22.00;99.90;;;;;;5031245;28;20108;-84
2021/09/14 10:49:54;;;;;;;5.22;1.73;;;22.10;99.90;;;;;;5030276;28;20026;-83
2021/09/14 10:53:01;;;;;;;4.95;1.70;;;21.90;99.90;;;;;;5031220;28;20501;-83
2021/09/14 10:55:30;;;;;;;9.07;2.20;;;21.90;99.90;;;;;;4985033;28;20144;-84
2021/09/14 10:58:01;;;;;;;5.20;1.63;;;21.80;99.90;;;;;;5030085;28;20068;-83
2021/09/14 11:00:29;;;;;;;5.20;1.63;;;21.70;99.90;;;;;;5030967;28;20029;-84
2021/09/14 11:02:55;;;;;;;4.53;1.20;;;21.70;99.90;;;;;;5031127;28;20031;-84
2021/09/14 11:05:29;;;;;;;3.63;1.20;;;21.70;99.90;;;;;;5030969;28;20441;-85
2021/09/14 11:08:03;;;;;;;6.30;1.58;;;21.80;99.90;;;;;;5031650;28;20025;-84
2021/09/14 11:10:36;;;;;;;5.28;1.52;;;21.90;99.90;;;;;;5031322;28;20029;-86
2021/09/14 11:13:03;;;;;;;8.40;1.52;;;22.20;99.90;;;;;;5030897;28;20021;-87
2021/09/14 11:15:28;;;;;;;14.18;2.08;;;22.10;99.90;;;;;;5031023;28;20072;-85
2021/09/14 11:17:54;;;;;;;7.30;1.30;;;22.10;99.90;;;;;;5031243;28;20017;-86
2021/09/14 11:20:21;;;;;;;9.52;2.03;;;22.20;99.90;;;;;;5031346;28;20032;-87
2021/09/14 11:22:50;;;;;;;4.18;1.30;;;22.30;99.90;;;;;;5033079;28;20517;-88
2021/09/14 11:25:23;;;;;;;7.75;1.48;;;22.50;99.90;;;;;;5033160;28;20029;-86
2021/09/14 11:28:00;;;;;;;10.35;1.60;;;22.50;99.90;;;;;;5033288;28;20029;-85
2021/09/14 11:30:28;;;;;;;3.15;1.17;;;22.20;99.90;;;;;;5033524;28;20125;-87
2021/09/14 11:32:55;;;;;;;8.82;1.35;;;22.40;99.90;;;;;;5033418;28;20474;-89
2021/09/14 11:35:22;;;;;;;5.47;1.42;;;21.80;99.90;;;;;;5034373;28;20034;-87
2021/09/14 11:37:58;;;;;;;8.32;1.67;;;22.00;99.90;;;;;;5033413;28;20026;-87
2021/09/14 11:40:24;;;;;;;7.30;1.33;;;22.10;99.90;;;;;;5034563;28;20502;-89
2021/09/14 11:42:54;;;;;;;9.80;1.65;;;22.40;99.90;;;;;;5035116;28;20029;-88
2021/09/14 11:45:25;;;;;;;7.07;1.58;;;23.30;99.90;;;;;;5033021;28;20422;-89
2021/09/14 11:47:52;;;;;;;6.03;1.35;;;23.80;99.90;;;;;;5035239;28;20036;-91
2021/09/14 11:50:26;;;;;;;5.78;1.60;;;24.40;99.90;;;;;;5034435;28;20022;-89
2021/09/14 11:53:15;;;;;;;6.70;1.50;;;25.00;99.90;;;;;;5034759;28;20381;-88
2021/09/14 11:55:48;;;;;;;5.35;1.38;;;25.50;99.90;;;;;;5034265;28;20017;-87
2021/09/14 11:58:26;;;;;;;6.00;1.60;;;25.60;99.90;;;;;;5033623;28;20457;-87
2021/09/14 12:00:55;;;;;;;5.43;1.60;;;25.70;99.90;;;;;;5034483;28;20017;-87
2021/09/14 12:03:21;;;;;;;4.22;1.13;;;26.30;99.90;;;;;;5034272;28;20109;-87
2021/09/14 12:05:57;;;;;;;3.45;1.33;;;27.00;99.90;;;;;;5032530;28;20083;-87
2021/09/14 12:08:38;;;;;;;6.68;1.13;;;27.60;99.90;;;;;;5034378;28;20032;-85
2021/09/14 12:11:04;;;;;;;7.60;1.60;;;27.70;99.90;;;;;;5034651;28;20029;-87
2021/09/14 12:13:38;;;;;;;6.82;1.83;;;28.10;99.90;;;;;;5034463;28;20030;-84
2021/09/14 12:16:08;;;;;;;5.88;1.60;;;28.40;99.90;;;;;;5033986;28;20481;-87
2021/09/14 12:18:34;;;;;;;7.57;1.50;;;28.50;99.90;;;;;;5034119;28;20036;-87
2021/09/14 12:20:59;;;;;;;3.60;1.73;;;28.70;99.90;;;;;;5034234;28;20107;-87
2021/09/14 12:23:25;;;;;;;10.00;1.50;;;29.10;99.90;;;;;;5016228;28;20025;-86
2021/09/14 12:25:51;;;;;;;3.65;1.08;;;29.50;99.90;;;;;;5032174;28;20021;-86
2021/09/14 12:28:16;;;;;;;4.07;1.27;;;29.90;99.90;;;;;;5034551;28;20025;-90
2021/09/14 12:30:42;;;;;;;4.43;1.23;;;30.10;99.90;;;;;;5033341;28;20121;-88
2021/09/14 12:33:07;;;;;;;5.10;1.25;;;29.80;99.90;;;;;;5033504;28;20030;-87
2021/09/14 12:35:34;;;;;;;4.55;1.50;;;29.20;99.90;;;;;;5033243;28;20028;-89
2021/09/14 12:37:59;;;;;;;9.43;1.58;;;28.80;99.90;;;;;;5033868;28;20100;-87
2021/09/14 12:40:25;;;;;;;10.38;1.75;;;28.30;99.90;;;;;;5016008;28;20060;-86
2021/09/14 12:42:51;;;;;;;5.97;1.30;;;28.00;99.90;;;;;;5034452;28;20616;-90
2021/09/14 12:45:16;;;;;;;4.68;1.35;;;27.30;99.90;;;;;;5016041;28;20036;-90
2021/09/14 12:47:42;;;;;;;4.40;1.65;;;27.10;99.90;;;;;;5033497;28;20048;-85
2021/09/14 12:50:08;;;;;;;6.75;1.42;;;27.50;99.90;;;;;;5033113;28;20220;-87
2021/09/14 12:52:34;;;;;;;6.40;1.40;;;28.50;99.90;;;;;;5015070;28;20021;-86
2021/09/14 12:54:59;;;;;;;6.57;1.35;;;29.10;99.90;;;;;;5031145;28;20457;-87
2021/09/14 12:57:25;;;;;;;2.50;1.15;;;29.70;99.90;;;;;;5031927;28;20033;-87
2021/09/14 12:59:51;;;;;;;7.22;1.58;;;30.10;99.90;;;;;;5015107;28;20036;-85
2021/09/14 13:02:17;;;;;;;7.35;1.40;;;30.30;99.90;;;;;;5033014;28;20104;-86
2021/09/14 13:04:42;;;;;;;4.82;1.52;;;30.40;99.90;;;;;;5032515;28;20064;-86
2021/09/14 13:07:08;;;;;;;5.00;1.38;;;30.60;99.90;;;;;;5015034;28;20550;-87
2021/09/14 13:09:33;;;;;;;5.03;1.30;;;30.60;99.90;;;;;;5033132;28;20045;-87
2021/09/14 13:11:59;;;;;;;4.00;1.35;;;30.60;99.90;;;;;;5015802;28;20053;-91
2021/09/14 13:17:11;;;;;;;4.30;1.35;;;30.70;98.10;;;;;;5033476;28;20044;-90
2021/09/14 13:19:37;;;;;;;7.13;1.55;;;30.00;97.50;;;;;;5032338;28;20441;-87
2021/09/14 13:22:02;;;;;;;4.57;1.20;;;30.20;99.50;;;;;;5024644;28;20094;-86
2021/09/14 13:24:28;;;;;;;5.63;1.27;;;30.30;98.40;;;;;;5016633;28;20029;-86
2021/09/14 13:26:54;;;;;;;5.47;1.88;;;30.40;98.40;;;;;;5032204;28;20641;-88
2021/09/14 13:29:19;;;;;;;2.97;1.20;;;30.40;99.50;;;;;;5031638;28;20025;-88
2021/09/14 13:31:46;;;;;;;3.63;0.95;;;30.40;97.40;;;;;;5032707;28;20098;-85
2021/09/14 13:34:11;;;;;;;4.10;1.33;;;30.60;97.00;;;;;;5032229;28;20064;-86
2021/09/14 13:36:37;;;;;;;5.90;1.40;;;30.20;98.00;;;;;;5032124;28;20440;-86
2021/09/14 13:39:03;;;;;;;3.72;1.23;;;30.40;98.30;;;;;;5014555;28;20393;-88
2021/09/14 13:41:36;;;;;;;4.15;1.23;;;29.90;98.70;;;;;;5031261;28;20025;-88
2021/09/14 13:46:54;;;;;;;11.02;1.58;;;30.50;97.00;;;;;;5005190;28;20008;-86